KASX

John F Kennedy Memorial Airport

Ashland, Wisconsin, USA
METAR KASX 151853Z AUTO 26005KT 9SM OVC024 M09/M14 A2983 RMK AO2 SLP119 T10941144
Observed Flight Rules
Dec-15 @ 18:53 UTC (58 minutes ago) Marginal Visual Flight Rules
Wind Visibility Clouds
260° at 5 knots 9 miles
  • Overcast at 2,400' AGL
Temperatures Readings
Current -9°C / 16°F
Dewpoint -14°C / 7°F
Humidity 67%
Altimeter 29.83" Hg
Pressure 1011.9 hPa
Elevation 251
METAR KASX 151853Z AUTO 26005KT 9SM OVC024 M09/M14 A2983 RMK AO2 SLP119 T10941144
Observed Flight Rules
Dec-15 @ 18:53 UTC
(58 minutes ago)
MVFR
Wind Visibility
260° at 5 knots 9 miles
Clouds
  • Overcast at 2,400' AGL
Temperature Dewpoint
-9°C / 16°F -14°C / 7°F
Humidity Altimeter Pressure
67% 29.83" Hg 1011.9 hPa